Time;durP1;ratioP1;P1;durP2;ratioP2;P2;SDS_P1;SDS_P2;PMS_P1;PMS_P2;Temp;Humidity;BMP_temperature;BMP_pressure;BME280_temperature;BME280_humidity;BME280_pressure;Samples;Min_cycle;Max_cycle;Signal;HPM_P1;HPM_P2
2022/12/12 00:00:08;;;;;;;13.93;9.33;;;-1.60;92.60;;;;;;5009272;28;20194;-78
2022/12/12 00:02:38;;;;;;;14.27;9.73;;;-1.70;92.60;;;;;;5009837;28;20639;-78
2022/12/12 00:08:42;;;;;;;13.67;9.03;;;-1.70;92.30;;;;;;5009346;28;20203;-78
2022/12/12 00:11:35;;;;;;;14.60;9.07;;;-1.50;92.10;;;;;;5011115;28;20207;-79
2022/12/12 00:14:28;;;;;;;13.80;8.70;;;-1.60;91.90;;;;;;5006903;28;20334;-78
2022/12/12 00:16:55;;;;;;;12.77;8.53;;;-1.50;92.30;;;;;;5008467;28;20227;-78
2022/12/12 00:19:22;;;;;;;12.20;8.83;;;-1.50;92.30;;;;;;5007834;28;20335;-79
2022/12/12 00:21:59;;;;;;;15.93;9.70;;;-1.50;92.20;;;;;;5010046;28;20289;-78
2022/12/12 00:24:27;;;;;;;15.17;9.07;;;-1.50;92.00;;;;;;5008931;28;20197;-78
2022/12/12 00:27:17;;;;;;;17.23;9.03;;;-1.60;92.10;;;;;;5010876;28;20277;-78
2022/12/12 00:30:05;;;;;;;14.03;9.03;;;-1.60;92.40;;;;;;5010761;28;20282;-78
2022/12/12 00:32:51;;;;;;;12.67;8.90;;;-1.50;92.50;;;;;;5010813;28;20248;-80
2022/12/12 00:36:10;;;;;;;14.87;9.67;;;-1.50;91.80;;;;;;5010040;28;20210;-79
2022/12/12 00:38:41;;;;;;;15.00;8.80;;;-1.60;92.30;;;;;;5009236;28;20200;-80
2022/12/12 00:44:27;;;;;;;16.07;9.67;;;-1.60;92.10;;;;;;5008063;28;20244;-80
2022/12/12 00:47:17;;;;;;;15.77;10.27;;;-1.70;92.00;;;;;;5006919;28;20614;-81
2022/12/12 00:49:53;;;;;;;15.90;9.90;;;-1.80;92.00;;;;;;5007950;28;20207;-80
2022/12/12 00:52:23;;;;;;;16.87;10.07;;;-1.80;92.10;;;;;;5011113;28;20222;-80
2022/12/12 00:55:06;;;;;;;15.60;9.83;;;-1.90;92.20;;;;;;5008827;28;20297;-80
2022/12/12 01:01:05;;;;;;;16.03;9.97;;;-1.90;92.40;;;;;;5010330;28;20302;-80
2022/12/12 01:03:42;;;;;;;18.00;9.70;;;-2.00;92.70;;;;;;5006700;28;20200;-80
2022/12/12 01:06:24;;;;;;;14.17;9.40;;;-2.00;92.70;;;;;;5006470;28;20295;-80
2022/12/12 01:08:59;;;;;;;15.53;9.73;;;-2.10;92.80;;;;;;5012476;28;20283;-80
2022/12/12 01:11:29;;;;;;;16.73;10.23;;;-2.00;93.60;;;;;;5010947;28;20294;-80
2022/12/12 01:13:56;;;;;;;18.67;10.37;;;-2.10;93.60;;;;;;5009370;28;20223;-80
2022/12/12 01:17:04;;;;;;;14.50;9.40;;;-1.90;93.20;;;;;;5006516;28;20282;-80
2022/12/12 01:19:33;;;;;;;18.30;9.87;;;-1.90;92.70;;;;;;5002274;28;20231;-80
2022/12/12 01:22:00;;;;;;;16.43;10.43;;;-2.00;93.10;;;;;;5011487;28;20210;-78
2022/12/12 01:24:35;;;;;;;15.33;9.90;;;-2.10;93.60;;;;;;5006755;28;20272;-78
2022/12/12 01:27:17;;;;;;;15.00;10.10;;;-2.10;93.60;;;;;;5010477;28;20191;-78
2022/12/12 01:33:17;;;;;;;15.07;9.87;;;-2.10;93.60;;;;;;5008224;28;20225;-82
2022/12/12 01:35:49;;;;;;;15.10;9.57;;;-2.00;93.90;;;;;;5013328;28;20292;-81
2022/12/12 01:38:24;;;;;;;16.90;10.37;;;-2.00;93.20;;;;;;5002732;28;20195;-79
2022/12/12 01:41:01;;;;;;;14.70;9.30;;;-2.10;93.30;;;;;;5011022;28;20198;-80
2022/12/12 01:43:35;;;;;;;14.77;9.47;;;-2.10;93.10;;;;;;5001784;28;20621;-80
2022/12/12 01:46:33;;;;;;;15.13;9.53;;;-2.20;93.60;;;;;;5002890;28;20285;-80
2022/12/12 01:49:29;;;;;;;14.70;9.33;;;-2.10;93.50;;;;;;5004956;28;20207;-80
2022/12/12 01:52:02;;;;;;;13.30;8.30;;;-2.00;92.90;;;;;;5007381;28;20187;-81
2022/12/12 01:54:32;;;;;;;14.60;9.33;;;-2.00;92.70;;;;;;5004482;28;20304;-80
2022/12/12 01:57:14;;;;;;;15.57;9.23;;;-2.10;92.70;;;;;;5003315;28;20278;-79
2022/12/12 01:59:42;;;;;;;15.10;9.40;;;-2.10;92.50;;;;;;5011733;28;20214;-79
2022/12/12 02:02:10;;;;;;;13.13;8.60;;;-2.10;92.70;;;;;;5010715;28;20533;-80
2022/12/12 02:04:47;;;;;;;13.60;8.53;;;-2.10;92.40;;;;;;5008422;28;20262;-79
2022/12/12 02:07:16;;;;;;;14.23;9.20;;;-2.20;92.50;;;;;;5006484;28;20282;-80
2022/12/12 02:10:11;;;;;;;15.93;8.80;;;-2.20;92.50;;;;;;5015807;28;20648;-82
2022/12/12 02:13:03;;;;;;;14.00;8.80;;;-2.20;92.70;;;;;;5020142;28;20253;-80
2022/12/12 02:16:10;;;;;;;13.77;9.23;;;-2.10;92.60;;;;;;5018789;28;20201;-80
2022/12/12 02:19:03;;;;;;;14.50;9.20;;;-2.00;92.80;;;;;;5016002;28;20235;-80
2022/12/12 02:21:40;;;;;;;12.87;7.90;;;-2.00;92.30;;;;;;5011295;28;20708;-80
2022/12/12 02:24:43;;;;;;;13.17;8.33;;;-2.00;92.50;;;;;;5016666;28;20273;-80
2022/12/12 02:30:43;;;;;;;14.40;8.20;;;-1.90;92.10;;;;;;4933122;29;20201;-80
2022/12/12 02:33:49;;;;;;;13.63;8.70;;;-2.00;92.20;;;;;;4928644;29;20224;-79
2022/12/12 02:36:25;;;;;;;13.60;8.67;;;-1.90;92.20;;;;;;4923864;29;20201;-79
2022/12/12 02:39:07;;;;;;;18.27;8.60;;;-1.90;92.30;;;;;;4922251;29;20221;-80
2022/12/12 02:41:50;;;;;;;14.20;8.63;;;-1.70;92.00;;;;;;4933940;29;20202;-79
2022/12/12 02:48:29;;;;;;;15.53;9.50;;;-1.70;92.10;;;;;;4927944;29;20306;-79
2022/12/12 02:51:10;;;;;;;15.67;9.87;;;-1.60;92.00;;;;;;4930280;29;20722;-79
2022/12/12 02:53:41;;;;;;;14.67;9.00;;;-1.60;92.00;;;;;;4927708;29;20319;-81
2022/12/12 02:56:29;;;;;;;15.27;9.13;;;-1.60;91.90;;;;;;4925778;29;20289;-79
2022/12/12 02:58:59;;;;;;;14.43;8.77;;;-1.60;92.00;;;;;;4918084;29;20234;-80
2022/12/12 03:01:40;;;;;;;15.37;8.50;;;-1.50;91.20;;;;;;4922928;29;20732;-79
2022/12/12 03:07:48;;;;;;;12.67;8.10;;;-1.90;91.90;;;;;;4953416;28;20202;-78
2022/12/12 03:10:33;;;;;;;14.27;8.20;;;-1.90;91.90;;;;;;4953607;28;20288;-79
2022/12/12 03:13:14;;;;;;;12.90;8.70;;;-2.10;91.90;;;;;;4954682;28;20232;-80
2022/12/12 03:15:49;;;;;;;13.80;8.67;;;-2.20;92.30;;;;;;4955954;28;20259;-80
2022/12/12 03:18:28;;;;;;;13.93;8.60;;;-2.30;92.70;;;;;;4952995;28;20312;-80
2022/12/12 03:21:17;;;;;;;13.70;8.57;;;-2.30;92.60;;;;;;4947950;28;20236;-80
2022/12/12 03:24:15;;;;;;;15.57;8.83;;;-2.40;92.70;;;;;;4949289;28;20301;-80
2022/12/12 03:26:58;;;;;;;13.27;8.37;;;-2.60;93.00;;;;;;4954812;28;20211;-80
2022/12/12 03:29:33;;;;;;;13.40;8.70;;;-2.60;93.10;;;;;;4948988;28;20236;-81
2022/12/12 03:32:23;;;;;;;13.57;8.50;;;-2.70;93.20;;;;;;4945147;28;20295;-81
2022/12/12 03:34:56;;;;;;;13.30;8.67;;;-2.70;93.10;;;;;;4947826;28;20224;-81
2022/12/12 03:40:58;;;;;;;12.93;8.23;;;-2.50;92.70;;;;;;4947782;28;20188;-80
2022/12/12 03:43:28;;;;;;;13.60;8.60;;;-2.60;93.10;;;;;;4950335;28;20655;-80
2022/12/12 03:46:00;;;;;;;13.67;8.43;;;-2.50;92.90;;;;;;5004268;28;20345;-79
2022/12/12 03:48:31;;;;;;;14.53;8.53;;;-2.60;92.50;;;;;;5010789;28;20289;-80
2022/12/12 03:51:02;;;;;;;15.93;9.03;;;-2.70;93.00;;;;;;5007920;28;20257;-81
2022/12/12 03:57:27;;;;;;;12.13;8.03;;;-2.80;93.40;;;;;;5006281;28;20731;-79
2022/12/12 04:00:07;;;;;;;13.20;7.87;;;-2.70;93.20;;;;;;5011340;28;20290;-81
2022/12/12 04:03:15;;;;;;;14.83;8.47;;;-2.70;93.10;;;;;;5011707;28;20280;-79
2022/12/12 04:15:54;;;;;;;13.43;8.07;;;-2.50;92.80;;;;;;5012484;28;20198;-80
2022/12/12 04:18:50;;;;;;;14.00;8.30;;;-2.50;92.60;;;;;;5000352;28;20602;-80
2022/12/12 04:24:44;;;;;;;13.67;8.23;;;-2.60;92.70;;;;;;5011021;28;20242;-80
2022/12/12 04:27:20;;;;;;;11.20;7.47;;;-2.60;92.60;;;;;;5010061;28;20342;-80
2022/12/12 04:30:08;;;;;;;12.93;8.00;;;-2.70;92.60;;;;;;5012827;28;20198;-79
2022/12/12 04:32:45;;;;;;;13.17;7.97;;;-2.80;92.80;;;;;;5008603;28;20204;-79
2022/12/12 04:35:32;;;;;;;13.40;8.13;;;-2.90;93.40;;;;;;5010806;28;20232;-80
2022/12/12 04:38:04;;;;;;;11.93;8.33;;;-2.80;93.40;;;;;;5008010;28;20987;-80
2022/12/12 04:40:38;;;;;;;14.30;8.23;;;-2.80;93.40;;;;;;5007906;28;20293;-80
2022/12/12 04:43:08;;;;;;;13.83;8.33;;;-2.80;93.40;;;;;;5002748;28;20215;-80
2022/12/12 04:45:42;;;;;;;13.27;8.63;;;-2.80;93.40;;;;;;5001234;28;20203;-80
2022/12/12 04:48:22;;;;;;;12.57;7.80;;;-2.90;93.20;;;;;;5013129;28;20286;-80
2022/12/12 04:50:54;;;;;;;15.23;8.90;;;-2.90;93.40;;;;;;5028008;28;20588;-80
2022/12/12 04:53:40;;;;;;;14.83;8.13;;;-3.00;93.40;;;;;;5020557;28;20231;-80
2022/12/12 04:56:11;;;;;;;11.80;7.83;;;-2.90;93.40;;;;;;5009471;28;20278;-79
2022/12/12 04:58:42;;;;;;;12.83;8.37;;;-2.80;93.40;;;;;;5012416;28;20205;-80
2022/12/12 05:01:17;;;;;;;13.20;7.90;;;-2.70;92.80;;;;;;5010920;28;20565;-80
2022/12/12 05:03:50;;;;;;;12.20;7.87;;;-2.80;92.70;;;;;;5009081;28;20281;-79
2022/12/12 05:06:59;;;;;;;14.80;8.53;;;-2.70;92.50;;;;;;5000917;28;20195;-79
2022/12/12 05:09:29;;;;;;;14.23;8.30;;;-2.70;92.50;;;;;;5007749;28;20203;-79
2022/12/12 05:12:06;;;;;;;12.30;7.57;;;-2.70;92.30;;;;;;5010232;28;20203;-79
2022/12/12 05:14:59;;;;;;;12.63;7.77;;;-2.60;92.20;;;;;;5012471;28;20254;-79
2022/12/12 05:17:58;;;;;;;15.87;8.33;;;-2.70;91.90;;;;;;5002746;28;20276;-82
2022/12/12 05:20:47;;;;;;;15.93;8.67;;;-2.70;91.80;;;;;;5011602;28;20654;-79
2022/12/12 05:23:23;;;;;;;11.80;7.97;;;-2.80;92.20;;;;;;5008296;28;20706;-80
2022/12/12 05:26:40;;;;;;;13.17;7.90;;;-2.80;92.70;;;;;;5009564;28;20278;-79
2022/12/12 05:29:58;;;;;;;11.93;7.33;;;-2.80;92.80;;;;;;5003587;28;20192;-80
2022/12/12 05:32:25;;;;;;;12.90;8.03;;;-2.80;92.30;;;;;;5003627;28;20286;-81
2022/12/12 05:35:08;;;;;;;13.40;7.80;;;-2.80;92.10;;;;;;5009695;28;20239;-80
2022/12/12 05:37:59;;;;;;;12.73;7.63;;;-2.70;92.00;;;;;;5009267;28;20207;-80
2022/12/12 05:40:29;;;;;;;14.47;8.17;;;-2.90;91.90;;;;;;5010010;28;20230;-80
2022/12/12 05:43:03;;;;;;;12.57;8.17;;;-2.90;92.70;;;;;;5008558;28;21001;-80
2022/12/12 05:45:41;;;;;;;10.80;7.60;;;-2.90;92.30;;;;;;5007183;28;20196;-79
2022/12/12 05:48:11;;;;;;;13.30;8.10;;;-2.90;92.20;;;;;;5012008;28;20290;-79
2022/12/12 05:50:49;;;;;;;12.30;7.80;;;-2.90;92.10;;;;;;5010907;28;20202;-79
2022/12/12 05:57:05;;;;;;;12.63;7.63;;;-3.10;92.90;;;;;;5007612;28;20725;-80
2022/12/12 05:59:32;;;;;;;12.97;7.90;;;-3.10;92.30;;;;;;5010159;28;20230;-83
2022/12/12 06:01:58;;;;;;;14.83;8.40;;;-3.10;92.40;;;;;;5013407;28;20205;-82
2022/12/12 06:04:53;;;;;;;10.60;7.40;;;-3.10;92.40;;;;;;5016026;28;20656;-81
2022/12/12 06:07:21;;;;;;;12.33;8.33;;;-3.10;92.70;;;;;;5010002;28;20275;-82
2022/12/12 06:09:54;;;;;;;12.20;8.00;;;-3.10;92.50;;;;;;5012380;28;20199;-83
2022/12/12 06:12:53;;;;;;;11.90;7.87;;;-3.00;93.20;;;;;;5005629;28;20290;-81
2022/12/12 06:15:58;;;;;;;11.67;7.77;;;-2.90;92.40;;;;;;5013345;28;20214;-82
2022/12/12 06:18:41;;;;;;;12.43;7.97;;;-3.00;91.90;;;;;;5014809;28;20198;-81
2022/12/12 06:21:35;;;;;;;12.10;7.73;;;-2.90;92.10;;;;;;5008622;28;21837;-82
2022/12/12 06:24:30;;;;;;;13.60;8.27;;;-2.70;92.30;;;;;;5012712;28;20292;-82
2022/12/12 06:27:05;;;;;;;12.00;7.70;;;-2.80;92.00;;;;;;5012647;28;20196;-84
2022/12/12 06:33:17;;;;;;;12.07;8.00;;;-2.80;92.20;;;;;;5008606;28;20197;-81
2022/12/12 06:36:10;;;;;;;13.00;8.30;;;-2.70;92.00;;;;;;5008437;28;20742;-82
2022/12/12 06:39:00;;;;;;;13.67;8.30;;;-2.80;92.40;;;;;;5003576;28;20203;-80
2022/12/12 06:41:30;;;;;;;13.17;7.97;;;-2.80;92.30;;;;;;5006258;28;20291;-80
2022/12/12 06:44:00;;;;;;;14.13;7.80;;;-2.80;92.50;;;;;;5013378;28;20227;-82
2022/12/12 06:46:29;;;;;;;13.13;8.47;;;-2.80;92.90;;;;;;5010720;28;20211;-80
2022/12/12 06:49:47;;;;;;;10.63;7.67;;;-2.80;93.10;;;;;;5012511;28;20199;-80
2022/12/12 06:52:13;;;;;;;11.23;7.43;;;-2.80;92.60;;;;;;5009798;28;20203;-80
2022/12/12 06:54:41;;;;;;;15.27;8.00;;;-2.80;92.50;;;;;;5001678;28;20231;-79
2022/12/12 06:57:09;;;;;;;12.10;7.83;;;-2.80;92.70;;;;;;5000497;28;20399;-80
2022/12/12 06:59:36;;;;;;;13.13;8.20;;;-2.80;92.70;;;;;;5005908;28;20227;-79
2022/12/12 07:02:23;;;;;;;11.93;7.90;;;-2.80;92.50;;;;;;5010062;28;20281;-80
2022/12/12 07:04:50;;;;;;;14.70;7.70;;;-2.70;92.00;;;;;;5006126;28;20290;-81
2022/12/12 07:11:02;;;;;;;12.00;7.70;;;-2.70;92.60;;;;;;5014772;28;20210;-82
2022/12/12 07:13:37;;;;;;;13.63;7.83;;;-2.70;92.40;;;;;;5013490;28;20686;-80
2022/12/12 07:16:23;;;;;;;13.00;7.90;;;-2.90;92.50;;;;;;5001136;28;20522;-80
2022/12/12 07:22:12;;;;;;;14.13;8.50;;;-3.20;93.30;;;;;;5012348;28;20194;-80
2022/12/12 07:24:53;;;;;;;12.03;7.47;;;-3.30;93.70;;;;;;5009478;28;20268;-81
2022/12/12 07:27:47;;;;;;;11.17;7.30;;;-3.30;94.20;;;;;;5010636;28;20306;-80
2022/12/12 07:30:19;;;;;;;16.03;8.03;;;-3.40;94.00;;;;;;5011663;28;20238;-80
2022/12/12 07:32:59;;;;;;;14.20;7.33;;;-3.40;94.00;;;;;;5015150;28;20294;-80
2022/12/12 07:35:41;;;;;;;11.93;7.33;;;-3.40;93.70;;;;;;5017385;28;20237;-80
2022/12/12 07:38:10;;;;;;;14.27;8.23;;;-3.40;93.80;;;;;;5001567;28;20274;-81
2022/12/12 07:40:37;;;;;;;11.67;7.43;;;-3.30;93.60;;;;;;5013132;28;20195;-82
2022/12/12 07:43:04;;;;;;;12.00;7.80;;;-3.30;93.80;;;;;;5020359;28;20282;-80
2022/12/12 07:45:37;;;;;;;11.80;7.47;;;-3.10;93.40;;;;;;5006831;28;20614;-80
2022/12/12 07:48:05;;;;;;;14.63;7.53;;;-3.00;92.80;;;;;;5013895;28;20207;-80
2022/12/12 07:50:47;;;;;;;12.67;7.77;;;-2.90;92.50;;;;;;5014130;28;20959;-80
2022/12/12 07:53:14;;;;;;;11.37;7.20;;;-2.90;92.60;;;;;;5021021;28;20224;-80
2022/12/12 07:55:41;;;;;;;9.27;6.63;;;-2.80;92.20;;;;;;5011840;28;20733;-80
2022/12/12 07:58:11;;;;;;;9.60;6.70;;;-2.60;91.50;;;;;;5010803;28;20286;-80
2022/12/12 08:00:40;;;;;;;11.07;7.20;;;-2.60;90.90;;;;;;5013640;28;20199;-81
2022/12/12 08:03:17;;;;;;;10.27;7.07;;;-2.60;90.80;;;;;;5014102;28;20278;-80
2022/12/12 08:05:53;;;;;;;10.53;6.77;;;-2.80;90.90;;;;;;5002391;28;20734;-80
2022/12/12 08:08:20;;;;;;;10.40;6.47;;;-2.90;91.40;;;;;;5010347;28;20865;-80
2022/12/12 08:10:53;;;;;;;9.70;6.60;;;-2.90;91.80;;;;;;5013570;28;20201;-81
2022/12/12 08:13:23;;;;;;;10.13;6.73;;;-2.90;91.90;;;;;;5010750;28;20294;-80
2022/12/12 08:16:12;;;;;;;9.33;6.43;;;-3.10;91.70;;;;;;5003816;28;20321;-80
2022/12/12 08:18:54;;;;;;;10.33;6.30;;;-3.10;91.90;;;;;;5008983;28;20283;-80
2022/12/12 08:21:24;;;;;;;9.53;6.17;;;-2.90;91.60;;;;;;5006074;28;20652;-80
2022/12/12 08:23:51;;;;;;;9.83;6.37;;;-3.00;91.60;;;;;;5013628;28;20648;-80
2022/12/12 08:29:40;;;;;;;9.53;5.90;;;-2.80;91.10;;;;;;5010159;28;20913;-80
2022/12/12 08:32:25;;;;;;;9.37;5.83;;;-2.70;90.80;;;;;;5012338;28;20195;-80
2022/12/12 08:35:00;;;;;;;8.33;5.73;;;-2.80;90.70;;;;;;5006028;28;20257;-81
2022/12/12 08:37:47;;;;;;;8.87;6.07;;;-2.70;90.80;;;;;;5010112;28;20716;-80
2022/12/12 08:40:17;;;;;;;9.50;6.53;;;-2.60;90.90;;;;;;5013023;28;20680;-81
2022/12/12 08:42:44;;;;;;;7.30;5.23;;;-2.30;90.00;;;;;;5005680;28;20223;-80
2022/12/12 08:45:11;;;;;;;7.83;5.37;;;-1.90;86.80;;;;;;5018529;28;20282;-81
2022/12/12 08:47:55;;;;;;;8.57;5.53;;;-1.60;84.80;;;;;;5023299;28;20234;-80
2022/12/12 08:50:24;;;;;;;7.60;5.47;;;-1.40;81.30;;;;;;5013175;28;20207;-78
2022/12/12 08:53:05;;;;;;;7.07;4.97;;;-1.20;79.80;;;;;;5013361;28;20206;-80
2022/12/12 08:55:33;;;;;;;8.30;4.90;;;-1.00;79.60;;;;;;5019561;28;20218;-80
2022/12/12 08:57:59;;;;;;;6.63;4.77;;;-0.90;78.60;;;;;;5011482;28;20294;-78
2022/12/12 09:00:36;;;;;;;8.23;4.77;;;-0.50;71.60;;;;;;5009940;28;20535;-77
2022/12/12 09:03:05;;;;;;;7.67;5.10;;;-0.30;69.00;;;;;;5004146;28;20200;-80
2022/12/12 09:05:35;;;;;;;8.27;5.20;;;0.00;64.50;;;;;;5011682;28;20333;-79
2022/12/12 09:08:03;;;;;;;9.60;6.00;;;0.40;62.00;;;;;;5005753;28;20258;-79
2022/12/12 09:10:59;;;;;;;9.03;5.97;;;1.20;85.40;;;;;;5011900;28;20196;-79
2022/12/12 09:13:47;;;;;;;7.53;5.93;;;2.00;66.70;;;;;;5009409;28;20282;-82
2022/12/12 09:16:19;;;;;;;7.43;5.43;;;2.80;76.80;;;;;;5010840;28;20217;-83
2022/12/12 09:18:49;;;;;;;7.93;5.30;;;3.90;43.40;;;;;;5010131;28;20195;-82
2022/12/12 09:24:48;;;;;;;7.05;5.70;;;4.40;34.10;;;;;;5009224;28;20218;-82
2022/12/12 09:27:41;;;;;;;6.22;5.18;;;4.60;34.10;;;;;;5011037;28;20285;-82
2022/12/12 09:30:12;;;;;;;8.30;6.30;;;4.70;30.50;;;;;;5004263;28;20731;-83
2022/12/12 09:33:17;;;;;;;18.80;13.02;;;5.50;27.70;;;;;;5000621;28;20206;-83
2022/12/12 09:35:57;;;;;;;75.90;51.13;;;5.90;25.40;;;;;;5003089;28;20207;-83
2022/12/12 09:39:05;;;;;;;39.58;26.10;;;5.80;24.80;;;;;;5002645;28;20221;-83
2022/12/12 09:41:42;;;;;;;12.80;9.40;;;5.90;25.80;;;;;;5007458;28;20286;-83
2022/12/12 09:44:14;;;;;;;14.60;10.85;;;5.60;25.20;;;;;;5005766;28;20248;-83
2022/12/12 09:46:45;;;;;;;11.98;8.60;;;4.60;27.60;;;;;;5006261;28;20260;-83
2022/12/12 09:49:25;;;;;;;10.68;7.57;;;4.10;29.10;;;;;;5001546;28;20275;-83
2022/12/12 09:51:57;;;;;;;8.55;6.20;;;4.00;29.00;;;;;;5000253;28;20257;-83
2022/12/12 09:54:29;;;;;;;8.07;6.40;;;3.50;31.00;;;;;;5003088;28;20302;-83
2022/12/12 09:57:23;;;;;;;6.47;4.93;;;3.10;32.70;;;;;;5010172;28;20602;-83
2022/12/12 09:59:58;;;;;;;8.77;5.87;;;2.20;33.40;;;;;;5007959;28;20622;-82
2022/12/12 10:02:46;;;;;;;7.90;6.00;;;1.50;45.30;;;;;;5014832;28;20205;-80
2022/12/12 10:05:26;;;;;;;8.63;5.97;;;2.00;47.90;;;;;;5000348;28;20219;-80
2022/12/12 10:08:00;;;;;;;7.87;5.27;;;2.10;41.90;;;;;;5008644;28;20290;-81
2022/12/12 10:11:48;;;;;;;6.87;5.43;;;1.30;41.30;;;;;;5007026;28;20223;-80
2022/12/12 10:14:01;;;;;;;6.73;4.83;;;1.00;47.50;;;;;;5002239;28;20203;-80
2022/12/12 10:16:32;;;;;;;8.83;4.87;;;0.80;52.70;;;;;;5009419;28;20582;-80
2022/12/12 10:19:06;;;;;;;6.53;5.00;;;1.00;50.00;;;;;;5007769;28;20223;-80
2022/12/12 10:21:58;;;;;;;6.70;5.00;;;0.80;50.60;;;;;;5008387;28;20308;-80
2022/12/12 10:24:32;;;;;;;7.10;5.07;;;0.40;56.90;;;;;;5001880;28;20252;-80
2022/12/12 10:27:10;;;;;;;6.07;5.07;;;0.40;53.10;;;;;;4994037;28;20235;-80
2022/12/12 10:30:06;;;;;;;6.37;4.60;;;0.70;54.80;;;;;;5001521;28;20195;-80
2022/12/12 10:33:01;;;;;;;7.03;5.23;;;1.40;50.90;;;;;;5009648;28;20238;-81
2022/12/12 10:35:52;;;;;;;6.33;4.73;;;1.60;47.60;;;;;;5006643;28;20728;-82
2022/12/12 10:38:39;;;;;;;7.67;4.93;;;1.60;46.30;;;;;;5013431;28;20335;-82
2022/12/12 10:41:15;;;;;;;7.00;5.23;;;2.10;41.90;;;;;;5009273;28;20231;-82
2022/12/12 10:47:06;;;;;;;7.22;5.03;;;2.70;35.10;;;;;;5009567;28;20300;-82
2022/12/12 10:49:42;;;;;;;6.43;4.57;;;2.50;37.80;;;;;;5011662;28;20314;-83
2022/12/12 10:52:16;;;;;;;6.43;4.95;;;2.40;37.60;;;;;;5014210;28;20781;-82
2022/12/12 10:54:46;;;;;;;6.80;5.55;;;2.40;37.50;;;;;;5005163;28;20236;-83
2022/12/12 10:57:22;;;;;;;5.85;4.85;;;2.40;36.70;;;;;;5011602;28;20210;-83
2022/12/12 10:59:52;;;;;;;7.20;5.15;;;2.80;33.90;;;;;;5003733;28;20207;-83
2022/12/12 11:02:38;;;;;;;9.05;5.47;;;3.10;34.30;;;;;;5014572;28;20281;-82
2022/12/12 11:05:31;;;;;;;6.57;5.22;;;2.70;34.20;;;;;;5009645;28;20750;-82
2022/12/12 11:11:30;;;;;;;25.93;17.20;;;2.40;42.60;;;;;;5008235;28;20702;-81
2022/12/12 11:14:03;;;;;;;20.03;12.17;;;2.30;55.70;;;;;;5013781;28;20257;-80
2022/12/12 11:16:59;;;;;;;8.57;6.07;;;2.10;51.00;;;;;;5013507;28;20299;-80
2022/12/12 11:20:06;;;;;;;21.10;13.20;;;2.00;46.70;;;;;;5018594;28;20190;-81
2022/12/12 11:22:33;;;;;;;15.27;8.27;;;2.00;49.70;;;;;;5009440;28;20191;-81
2022/12/12 11:25:00;;;;;;;6.33;4.60;;;1.60;47.60;;;;;;5016232;28;20286;-80
2022/12/12 11:27:31;;;;;;;17.50;10.33;;;1.50;46.70;;;;;;5010110;28;20287;-80
2022/12/12 11:30:22;;;;;;;7.03;4.83;;;1.50;57.50;;;;;;5004378;28;20199;-80
2022/12/12 11:32:52;;;;;;;7.93;5.63;;;1.60;52.70;;;;;;5014038;28;20207;-80
2022/12/12 11:35:25;;;;;;;6.27;4.57;;;1.50;50.00;;;;;;5014117;28;20294;-80
2022/12/12 11:38:09;;;;;;;6.50;4.20;;;1.60;47.20;;;;;;5030997;28;20833;-80
2022/12/12 11:41:06;;;;;;;7.53;4.40;;;1.70;50.40;;;;;;5010806;28;20286;-80
2022/12/12 11:43:56;;;;;;;6.50;4.87;;;2.20;47.40;;;;;;5014513;28;20619;-80
2022/12/12 11:46:54;;;;;;;7.37;4.60;;;2.50;39.40;;;;;;5015120;28;20257;-80
2022/12/12 11:49:21;;;;;;;10.33;6.37;;;2.40;39.80;;;;;;5012608;28;20282;-80
2022/12/12 11:55:16;;;;;;;5.60;4.33;;;2.30;42.10;;;;;;5012162;28;20226;-81
2022/12/12 11:58:23;;;;;;;9.17;4.27;;;2.10;39.90;;;;;;5004977;28;20632;-80
2022/12/12 12:01:12;;;;;;;5.23;3.77;;;2.00;45.30;;;;;;5013652;28;20195;-80
2022/12/12 12:04:18;;;;;;;5.83;4.30;;;2.20;36.50;;;;;;5008877;28;20290;-80
2022/12/12 12:07:04;;;;;;;4.60;3.73;;;2.20;36.20;;;;;;5010672;28;20245;-80
2022/12/12 12:09:45;;;;;;;8.53;5.33;;;2.10;32.30;;;;;;5010746;28;20206;-80
2022/12/12 12:12:17;;;;;;;5.40;3.77;;;1.90;41.80;;;;;;5010361;28;20206;-80
2022/12/12 12:15:18;;;;;;;8.47;3.80;;;1.70;37.70;;;;;;5009437;28;20291;-80
2022/12/12 12:18:17;;;;;;;7.67;3.70;;;1.60;35.40;;;;;;4993089;28;20204;-80
2022/12/12 12:21:17;;;;;;;8.63;3.97;;;1.30;33.90;;;;;;5011820;28;20674;-80
2022/12/12 12:23:56;;;;;;;6.67;3.20;;;1.00;36.50;;;;;;5001941;28;20277;-80
2022/12/12 12:26:40;;;;;;;6.73;4.10;;;0.90;35.40;;;;;;5005766;28;20681;-80
2022/12/12 12:29:35;;;;;;;5.50;3.60;;;0.70;35.30;;;;;;5006689;28;20231;-80
2022/12/12 12:32:10;;;;;;;9.27;5.10;;;0.60;34.00;;;;;;4999422;28;20203;-80
2022/12/12 12:34:53;;;;;;;6.03;3.87;;;0.90;41.50;;;;;;5009599;28;20888;-80
2022/12/12 12:37:36;;;;;;;7.43;5.00;;;1.20;34.50;;;;;;4999447;28;20322;-80
2022/12/12 12:43:55;;;;;;;5.63;3.50;;;1.20;33.70;;;;;;5007755;28;20203;-78
2022/12/12 12:46:44;;;;;;;5.07;3.53;;;0.90;35.60;;;;;;5009346;28;20218;-78
2022/12/12 12:49:17;;;;;;;5.67;4.23;;;0.90;33.80;;;;;;5011419;28;20262;-79
2022/12/12 12:52:01;;;;;;;6.27;4.20;;;0.90;39.70;;;;;;5006695;28;20238;-79
2022/12/12 12:54:37;;;;;;;8.23;4.50;;;1.00;38.30;;;;;;5004158;28;20600;-79
2022/12/12 12:57:23;;;;;;;7.27;3.57;;;1.20;39.40;;;;;;5011870;28;20294;-80
2022/12/12 13:00:15;;;;;;;6.37;4.40;;;1.40;37.70;;;;;;5009921;28;20573;-81
2022/12/12 13:02:54;;;;;;;6.13;4.23;;;1.70;37.20;;;;;;5003159;28;20199;-82
2022/12/12 13:05:43;;;;;;;6.50;3.30;;;1.80;34.50;;;;;;5011524;28;20199;-81
2022/12/12 13:08:19;;;;;;;5.03;3.33;;;1.80;29.60;;;;;;5004178;28;20261;-81
2022/12/12 13:10:52;;;;;;;10.20;3.60;;;1.60;27.70;;;;;;5002854;28;20542;-81
2022/12/12 13:13:59;;;;;;;8.77;3.33;;;1.50;27.90;;;;;;5009007;28;20306;-81
2022/12/12 13:16:44;;;;;;;6.27;3.60;;;1.40;27.10;;;;;;5009226;28;20629;-82
2022/12/12 13:19:16;;;;;;;6.83;3.87;;;1.00;26.70;;;;;;5005362;28;20565;-81
2022/12/12 13:21:48;;;;;;;8.50;3.70;;;0.70;29.40;;;;;;5007471;28;20203;-82
2022/12/12 13:24:28;;;;;;;5.83;3.60;;;0.50;28.00;;;;;;5016679;28;20571;-80
2022/12/12 13:27:15;;;;;;;6.57;3.80;;;0.70;27.60;;;;;;5005972;28;20222;-81
2022/12/12 13:30:10;;;;;;;6.07;3.90;;;0.90;27.40;;;;;;5004743;28;20707;-83
2022/12/12 13:33:06;;;;;;;6.40;3.80;;;1.00;30.90;;;;;;5010095;28;20577;-82
2022/12/12 13:36:08;;;;;;;8.93;4.03;;;1.10;31.90;;;;;;4999400;28;20602;-81
2022/12/12 13:39:06;;;;;;;9.00;4.23;;;0.90;31.30;;;;;;5002452;28;20234;-81
2022/12/12 13:44:58;;;;;;;7.87;4.70;;;0.60;35.90;;;;;;5007179;28;20194;-79
2022/12/12 13:47:59;;;;;;;9.53;5.70;;;0.60;36.60;;;;;;5005915;28;20249;-82
2022/12/12 13:50:47;;;;;;;13.60;6.73;;;0.60;38.80;;;;;;4931724;29;20206;-80
2022/12/12 13:53:47;;;;;;;13.23;6.23;;;0.70;38.80;;;;;;4931903;29;20708;-80
2022/12/12 14:00:27;;;;;;;9.47;6.13;;;0.70;40.70;;;;;;4927439;29;20201;-78
2022/12/12 14:03:28;;;;;;;9.20;6.10;;;0.60;40.80;;;;;;4929673;29;20728;-79
2022/12/12 14:06:17;;;;;;;8.93;5.97;;;0.50;50.20;;;;;;4933412;29;20283;-80
2022/12/12 14:08:50;;;;;;;10.90;7.00;;;0.70;43.00;;;;;;4935270;29;20204;-79
2022/12/12 14:11:59;;;;;;;10.43;6.30;;;0.50;43.40;;;;;;4933361;29;20568;-79
2022/12/12 14:14:42;;;;;;;11.87;6.33;;;0.40;43.00;;;;;;4936864;29;20291;-79
2022/12/12 14:17:20;;;;;;;12.87;6.40;;;0.20;42.30;;;;;;4934136;29;20217;-79
2022/12/12 14:19:53;;;;;;;18.20;6.77;;;0.10;43.00;;;;;;4935019;29;20965;-79
2022/12/12 14:25:48;;;;;;;12.50;6.40;;;-0.10;52.10;;;;;;4934941;29;20273;-82
2022/12/12 14:28:25;;;;;;;14.00;6.23;;;-0.20;49.60;;;;;;4998701;28;20572;-81
2022/12/12 14:31:14;;;;;;;11.97;6.73;;;-0.30;50.10;;;;;;5001132;28;20727;-81
2022/12/12 14:34:07;;;;;;;12.33;6.13;;;-0.20;50.70;;;;;;5006891;28;20213;-82
2022/12/12 14:37:13;;;;;;;9.60;5.87;;;-0.20;46.90;;;;;;5005712;28;20235;-81
2022/12/12 14:40:18;;;;;;;14.13;6.37;;;-0.30;48.20;;;;;;5009447;28;20253;-82
2022/12/12 14:43:07;;;;;;;11.27;6.63;;;-0.30;48.30;;;;;;4999954;28;20200;-81
2022/12/12 14:45:38;;;;;;;15.67;6.80;;;-0.40;52.80;;;;;;5004174;28;20200;-81
2022/12/12 14:48:26;;;;;;;12.40;7.10;;;-0.40;53.80;;;;;;5003976;28;20680;-81
2022/12/12 14:51:07;;;;;;;13.47;7.70;;;-0.40;51.70;;;;;;5018289;28;20199;-80
2022/12/12 14:53:48;;;;;;;12.47;6.87;;;-0.30;57.10;;;;;;5011961;28;21067;-80
2022/12/12 14:56:17;;;;;;;15.00;7.37;;;-0.30;54.80;;;;;;5014823;28;20225;-79
2022/12/12 14:59:06;;;;;;;12.47;6.83;;;-0.40;54.40;;;;;;5011843;28;20217;-80
2022/12/12 15:05:03;;;;;;;19.17;7.87;;;-0.80;59.40;;;;;;5001121;28;20208;-83
2022/12/12 15:07:42;;;;;;;15.37;8.10;;;-0.90;63.50;;;;;;5007640;28;20199;-82
2022/12/12 15:10:22;;;;;;;14.93;7.67;;;-1.00;67.80;;;;;;5012156;28;20230;-82
2022/12/12 15:12:54;;;;;;;13.70;7.87;;;-1.00;68.70;;;;;;5012877;28;20194;-82
2022/12/12 15:19:13;;;;;;;13.37;7.43;;;-1.20;70.00;;;;;;5012513;28;20206;-81
2022/12/12 15:21:42;;;;;;;18.57;8.33;;;-1.30;77.00;;;;;;5012703;28;20291;-82
2022/12/12 15:24:19;;;;;;;17.53;8.07;;;-1.30;76.50;;;;;;5007518;28;20206;-81
2022/12/12 15:27:29;;;;;;;16.77;7.87;;;-1.20;78.30;;;;;;5011241;28;20672;-82
2022/12/12 15:29:58;;;;;;;13.83;7.30;;;-1.30;78.20;;;;;;5005486;28;20196;-81